Airfield :







YOU CAN JOIN US ON...

 
LOGIN :

Register | Disclaimer

   EN    FR    IT 

 









Legend :    VFR   Marginal VFR   IFR   Intensive IFR   Very Intensive IFR
Visi :
Ceiling :
>= 8 km
>= 3000ft
5 to 8 km
1000 to 3000 ft
1500m to 5 km
500 to 1000 ft
800 to 1500m
200 to 500 ft
< 800m
< 200 ft
Symbols :   Thunderstorms  Fog  Heavy snow  Heavy precipitations  Wind > 20 kt






- Airport Elevation : 930 ft


KEFK - Newport State

CURRENT METAR :
  • 161856Z AUTO 16016G20KT 10SM CLR 13/03 A2981 RMK AO2 T01330033

EXPIRED METARs :
  • 161838Z AUTO 15017G23KT 140V200 10SM CLR 13/03 A2981 RMK AO2 T01320030
  • 161816Z AUTO 15018G23KT 10SM CLR 14/03 A2981 RMK AO2 T01360032
  • 161759Z AUTO 16013G23KT 10SM CLR 13/03 A2982 RMK AO2 T01340032 10134 20015
  • 161755Z AUTO 15012G23KT 10SM CLR 13/03 A2983 RMK AO2 T01320029 10133 20015
  • 161736Z AUTO 15019G26KT 10SM CLR 13/03 A2984 RMK AO2 T01310027
  • 161718Z AUTO 14020G26KT 10SM CLR 13/03 A2984 RMK AO2 T01270032
  • 161656Z AUTO 15023G30KT 10SM CLR 13/03 A2985 RMK AO2 T01270033
  • 161639Z AUTO 15017G28KT 10SM CLR 13/03 A2985 RMK AO2 T01250030
  • 161616Z AUTO 14013G23KT 10SM CLR 12/04 A2987 RMK AO2 T01230036
  • 161558Z AUTO 16019G26KT 10SM CLR 13/03 A2988 RMK AO2 T01250031

TAF N/A



MET'MAP, your aeronautical weather chart ! - Copyright ORBIFLY December 2007 - Disclaimer

ORBIFLY MET'MAP TEAM :

Programming & Development : Alexandra Zaïnal
Concept & Development : Baudouin d'Aumeries
Co-Development & Prog : Marc-Olivier Méhu
Technical & hardware support : Manuel Goepfert

Contact : metmap@orbifly.com




SOURCES & CREDITS :

   NOAA